sensor_id;sensor_type;location;lat;lon;timestamp;P1;durP1;ratioP1;P2;durP2;ratioP2
1747;SDS011;871;47.034;15.394;2023-12-14T00:01:17;36.60;;;1.80;;
1747;SDS011;871;47.034;15.394;2023-12-14T00:03:44;37.00;;;1.98;;
1747;SDS011;871;47.034;15.394;2023-12-14T00:06:13;37.00;;;1.77;;
1747;SDS011;871;47.034;15.394;2023-12-14T00:08:39;37.58;;;2.10;;
1747;SDS011;871;47.034;15.394;2023-12-14T00:11:06;37.42;;;2.03;;
1747;SDS011;871;47.034;15.394;2023-12-14T00:13:33;38.25;;;2.95;;
1747;SDS011;871;47.034;15.394;2023-12-14T00:15:59;37.60;;;2.10;;
1747;SDS011;871;47.034;15.394;2023-12-14T00:18:25;37.75;;;2.30;;
1747;SDS011;871;47.034;15.394;2023-12-14T00:20:52;37.85;;;3.10;;
1747;SDS011;871;47.034;15.394;2023-12-14T00:23:19;36.80;;;1.58;;
1747;SDS011;871;47.034;15.394;2023-12-14T00:25:45;37.15;;;2.50;;
1747;SDS011;871;47.034;15.394;2023-12-14T00:28:11;37.13;;;2.50;;
1747;SDS011;871;47.034;15.394;2023-12-14T00:30:37;36.53;;;1.50;;
1747;SDS011;871;47.034;15.394;2023-12-14T00:33:03;36.65;;;1.88;;
1747;SDS011;871;47.034;15.394;2023-12-14T00:35:29;36.55;;;2.97;;
1747;SDS011;871;47.034;15.394;2023-12-14T00:37:55;35.80;;;2.17;;
1747;SDS011;871;47.034;15.394;2023-12-14T00:40:21;35.60;;;1.60;;
1747;SDS011;871;47.034;15.394;2023-12-14T00:42:48;36.50;;;2.00;;
1747;SDS011;871;47.034;15.394;2023-12-14T00:45:14;37.70;;;2.60;;
1747;SDS011;871;47.034;15.394;2023-12-14T00:47:40;37.05;;;2.30;;
1747;SDS011;871;47.034;15.394;2023-12-14T00:50:06;37.15;;;2.35;;
1747;SDS011;871;47.034;15.394;2023-12-14T00:52:32;36.67;;;1.50;;
1747;SDS011;871;47.034;15.394;2023-12-14T00:54:58;36.60;;;1.75;;
1747;SDS011;871;47.034;15.394;2023-12-14T00:57:24;36.35;;;2.10;;
1747;SDS011;871;47.034;15.394;2023-12-14T00:59:50;35.90;;;1.90;;
1747;SDS011;871;47.034;15.394;2023-12-14T01:02:16;35.95;;;1.70;;
1747;SDS011;871;47.034;15.394;2023-12-14T01:04:42;36.22;;;2.25;;
1747;SDS011;871;47.034;15.394;2023-12-14T01:07:08;37.15;;;2.38;;
1747;SDS011;871;47.034;15.394;2023-12-14T01:09:34;36.30;;;1.45;;
1747;SDS011;871;47.034;15.394;2023-12-14T01:12:00;36.22;;;1.92;;
1747;SDS011;871;47.034;15.394;2023-12-14T01:14:26;36.50;;;1.60;;
1747;SDS011;871;47.034;15.394;2023-12-14T01:16:52;36.63;;;1.50;;
1747;SDS011;871;47.034;15.394;2023-12-14T01:19:18;36.60;;;1.45;;
1747;SDS011;871;47.034;15.394;2023-12-14T01:21:44;37.35;;;1.73;;
1747;SDS011;871;47.034;15.394;2023-12-14T01:24:10;37.13;;;2.20;;
1747;SDS011;871;47.034;15.394;2023-12-14T01:26:36;36.72;;;1.63;;
1747;SDS011;871;47.034;15.394;2023-12-14T01:29:02;37.35;;;2.00;;
1747;SDS011;871;47.034;15.394;2023-12-14T01:31:29;38.35;;;2.97;;
1747;SDS011;871;47.034;15.394;2023-12-14T01:33:55;36.80;;;1.90;;
1747;SDS011;871;47.034;15.394;2023-12-14T01:36:21;37.00;;;2.17;;
1747;SDS011;871;47.034;15.394;2023-12-14T01:38:47;36.65;;;1.50;;
1747;SDS011;871;47.034;15.394;2023-12-14T01:41:14;36.45;;;1.80;;
1747;SDS011;871;47.034;15.394;2023-12-14T01:43:41;36.55;;;1.90;;
1747;SDS011;871;47.034;15.394;2023-12-14T01:46:07;36.92;;;1.88;;
1747;SDS011;871;47.034;15.394;2023-12-14T01:48:33;36.63;;;1.63;;
1747;SDS011;871;47.034;15.394;2023-12-14T01:50:59;36.85;;;2.00;;
1747;SDS011;871;47.034;15.394;2023-12-14T01:53:26;36.63;;;2.03;;
1747;SDS011;871;47.034;15.394;2023-12-14T01:55:52;36.20;;;1.60;;
1747;SDS011;871;47.034;15.394;2023-12-14T01:58:18;36.17;;;1.73;;
1747;SDS011;871;47.034;15.394;2023-12-14T02:00:59;36.83;;;2.50;;
1747;SDS011;871;47.034;15.394;2023-12-14T02:03:28;36.08;;;1.80;;
1747;SDS011;871;47.034;15.394;2023-12-14T02:05:54;36.13;;;1.50;;
1747;SDS011;871;47.034;15.394;2023-12-14T02:08:20;36.72;;;1.75;;
1747;SDS011;871;47.034;15.394;2023-12-14T02:10:46;36.35;;;1.50;;
1747;SDS011;871;47.034;15.394;2023-12-14T02:13:13;36.50;;;1.77;;
1747;SDS011;871;47.034;15.394;2023-12-14T02:15:39;37.15;;;2.40;;
1747;SDS011;871;47.034;15.394;2023-12-14T02:18:05;36.70;;;1.60;;
1747;SDS011;871;47.034;15.394;2023-12-14T02:20:31;36.03;;;1.67;;
1747;SDS011;871;47.034;15.394;2023-12-14T02:22:57;36.10;;;1.73;;
1747;SDS011;871;47.034;15.394;2023-12-14T02:25:24;36.35;;;1.55;;
1747;SDS011;871;47.034;15.394;2023-12-14T02:27:50;36.30;;;2.15;;
1747;SDS011;871;47.034;15.394;2023-12-14T02:30:17;36.85;;;1.98;;
1747;SDS011;871;47.034;15.394;2023-12-14T02:32:43;36.60;;;1.90;;
1747;SDS011;871;47.034;15.394;2023-12-14T02:35:09;36.55;;;1.60;;
1747;SDS011;871;47.034;15.394;2023-12-14T02:37:36;36.72;;;1.90;;
1747;SDS011;871;47.034;15.394;2023-12-14T02:40:02;36.13;;;1.83;;
1747;SDS011;871;47.034;15.394;2023-12-14T02:42:29;36.33;;;1.67;;
1747;SDS011;871;47.034;15.394;2023-12-14T02:44:55;35.42;;;1.60;;
1747;SDS011;871;47.034;15.394;2023-12-14T02:47:22;36.05;;;2.15;;
1747;SDS011;871;47.034;15.394;2023-12-14T02:49:48;35.72;;;1.50;;
1747;SDS011;871;47.034;15.394;2023-12-14T02:52:14;35.65;;;1.50;;
1747;SDS011;871;47.034;15.394;2023-12-14T02:54:40;35.42;;;1.65;;
1747;SDS011;871;47.034;15.394;2023-12-14T02:57:06;35.65;;;1.88;;
1747;SDS011;871;47.034;15.394;2023-12-14T02:59:32;35.80;;;2.08;;
1747;SDS011;871;47.034;15.394;2023-12-14T03:01:58;35.80;;;1.90;;
1747;SDS011;871;47.034;15.394;2023-12-14T03:04:25;35.42;;;1.75;;
1747;SDS011;871;47.034;15.394;2023-12-14T03:06:51;35.65;;;1.60;;
1747;SDS011;871;47.034;15.394;2023-12-14T03:09:17;35.55;;;1.73;;
1747;SDS011;871;47.034;15.394;2023-12-14T03:11:44;35.65;;;1.60;;
1747;SDS011;871;47.034;15.394;2023-12-14T03:14:10;35.45;;;1.63;;
1747;SDS011;871;47.034;15.394;2023-12-14T03:16:36;36.00;;;1.63;;
1747;SDS011;871;47.034;15.394;2023-12-14T03:19:02;36.30;;;1.48;;
1747;SDS011;871;47.034;15.394;2023-12-14T03:21:29;36.63;;;1.40;;
1747;SDS011;871;47.034;15.394;2023-12-14T03:23:55;36.65;;;1.70;;
1747;SDS011;871;47.034;15.394;2023-12-14T03:26:21;36.60;;;1.88;;
1747;SDS011;871;47.034;15.394;2023-12-14T03:28:47;36.08;;;1.65;;
1747;SDS011;871;47.034;15.394;2023-12-14T03:31:14;36.65;;;1.75;;
1747;SDS011;871;47.034;15.394;2023-12-14T03:33:41;36.13;;;1.50;;
1747;SDS011;871;47.034;15.394;2023-12-14T03:36:07;36.47;;;1.90;;
1747;SDS011;871;47.034;15.394;2023-12-14T03:38:33;36.63;;;1.65;;
1747;SDS011;871;47.034;15.394;2023-12-14T03:40:59;36.47;;;1.70;;
1747;SDS011;871;47.034;15.394;2023-12-14T03:43:26;36.42;;;1.33;;
1747;SDS011;871;47.034;15.394;2023-12-14T03:45:52;36.42;;;1.60;;
1747;SDS011;871;47.034;15.394;2023-12-14T03:48:18;36.35;;;1.70;;
1747;SDS011;871;47.034;15.394;2023-12-14T03:50:44;36.95;;;2.28;;
1747;SDS011;871;47.034;15.394;2023-12-14T03:53:10;36.30;;;1.40;;
1747;SDS011;871;47.034;15.394;2023-12-14T03:55:36;36.53;;;1.60;;
1747;SDS011;871;47.034;15.394;2023-12-14T03:58:02;36.60;;;1.55;;
1747;SDS011;871;47.034;15.394;2023-12-14T04:00:28;36.85;;;1.85;;
1747;SDS011;871;47.034;15.394;2023-12-14T04:02:54;37.10;;;1.92;;
1747;SDS011;871;47.034;15.394;2023-12-14T04:05:21;37.22;;;1.50;;
1747;SDS011;871;47.034;15.394;2023-12-14T04:07:47;37.10;;;1.80;;
1747;SDS011;871;47.034;15.394;2023-12-14T04:10:13;37.00;;;1.33;;
1747;SDS011;871;47.034;15.394;2023-12-14T04:12:39;37.10;;;1.48;;
1747;SDS011;871;47.034;15.394;2023-12-14T04:15:06;36.80;;;1.50;;
1747;SDS011;871;47.034;15.394;2023-12-14T04:17:32;36.42;;;1.30;;
1747;SDS011;871;47.034;15.394;2023-12-14T04:19:59;36.67;;;1.65;;
1747;SDS011;871;47.034;15.394;2023-12-14T04:22:25;36.75;;;1.80;;
1747;SDS011;871;47.034;15.394;2023-12-14T04:24:51;37.13;;;1.95;;
1747;SDS011;871;47.034;15.394;2023-12-14T04:27:18;37.45;;;1.85;;
1747;SDS011;871;47.034;15.394;2023-12-14T04:29:44;37.30;;;1.70;;
1747;SDS011;871;47.034;15.394;2023-12-14T04:32:10;37.40;;;1.30;;
1747;SDS011;871;47.034;15.394;2023-12-14T04:34:36;37.60;;;1.63;;
1747;SDS011;871;47.034;15.394;2023-12-14T04:37:02;37.22;;;1.50;;
1747;SDS011;871;47.034;15.394;2023-12-14T04:39:28;37.33;;;1.50;;
1747;SDS011;871;47.034;15.394;2023-12-14T04:41:55;37.30;;;1.30;;
1747;SDS011;871;47.034;15.394;2023-12-14T04:44:21;37.03;;;1.40;;
1747;SDS011;871;47.034;15.394;2023-12-14T04:46:47;36.58;;;1.40;;
1747;SDS011;871;47.034;15.394;2023-12-14T04:49:13;36.72;;;1.50;;
1747;SDS011;871;47.034;15.394;2023-12-14T04:51:40;36.65;;;1.52;;
1747;SDS011;871;47.034;15.394;2023-12-14T04:54:06;37.17;;;1.83;;
1747;SDS011;871;47.034;15.394;2023-12-14T04:56:32;37.63;;;2.45;;
1747;SDS011;871;47.034;15.394;2023-12-14T04:58:58;37.35;;;1.83;;
1747;SDS011;871;47.034;15.394;2023-12-14T05:01:24;37.75;;;2.38;;
1747;SDS011;871;47.034;15.394;2023-12-14T05:03:54;37.30;;;1.60;;
1747;SDS011;871;47.034;15.394;2023-12-14T05:06:20;37.63;;;1.60;;
1747;SDS011;871;47.034;15.394;2023-12-14T05:08:47;37.33;;;1.70;;
1747;SDS011;871;47.034;15.394;2023-12-14T05:11:13;37.22;;;1.30;;
1747;SDS011;871;47.034;15.394;2023-12-14T05:13:39;37.45;;;2.03;;
1747;SDS011;871;47.034;15.394;2023-12-14T05:16:06;36.67;;;1.70;;
1747;SDS011;871;47.034;15.394;2023-12-14T05:18:32;36.20;;;1.55;;
1747;SDS011;871;47.034;15.394;2023-12-14T05:20:59;36.13;;;1.80;;
1747;SDS011;871;47.034;15.394;2023-12-14T05:23:25;36.05;;;2.00;;
1747;SDS011;871;47.034;15.394;2023-12-14T05:25:51;35.45;;;1.80;;
1747;SDS011;871;47.034;15.394;2023-12-14T05:28:17;35.40;;;1.80;;
1747;SDS011;871;47.034;15.394;2023-12-14T05:30:43;35.27;;;1.60;;
1747;SDS011;871;47.034;15.394;2023-12-14T05:33:09;35.35;;;1.60;;
1747;SDS011;871;47.034;15.394;2023-12-14T05:35:35;35.35;;;1.60;;
1747;SDS011;871;47.034;15.394;2023-12-14T05:38:01;36.25;;;1.65;;
1747;SDS011;871;47.034;15.394;2023-12-14T05:40:27;36.15;;;1.50;;
1747;SDS011;871;47.034;15.394;2023-12-14T05:42:53;36.10;;;1.40;;
1747;SDS011;871;47.034;15.394;2023-12-14T05:45:20;36.33;;;1.80;;
1747;SDS011;871;47.034;15.394;2023-12-14T05:47:46;36.22;;;1.30;;
1747;SDS011;871;47.034;15.394;2023-12-14T05:50:12;36.63;;;1.90;;
1747;SDS011;871;47.034;15.394;2023-12-14T05:52:38;35.95;;;1.70;;
1747;SDS011;871;47.034;15.394;2023-12-14T05:55:07;35.75;;;1.80;;
1747;SDS011;871;47.034;15.394;2023-12-14T05:57:33;35.33;;;1.70;;
1747;SDS011;871;47.034;15.394;2023-12-14T05:59:59;34.92;;;1.50;;
1747;SDS011;871;47.034;15.394;2023-12-14T06:02:25;35.65;;;2.60;;
1747;SDS011;871;47.034;15.394;2023-12-14T06:04:51;35.10;;;1.90;;
1747;SDS011;871;47.034;15.394;2023-12-14T06:07:18;35.55;;;2.25;;
1747;SDS011;871;47.034;15.394;2023-12-14T06:09:44;35.70;;;1.40;;
1747;SDS011;871;47.034;15.394;2023-12-14T06:12:10;36.13;;;1.90;;
1747;SDS011;871;47.034;15.394;2023-12-14T06:14:36;36.38;;;1.85;;
1747;SDS011;871;47.034;15.394;2023-12-14T06:17:02;36.75;;;1.90;;
1747;SDS011;871;47.034;15.394;2023-12-14T06:19:28;36.40;;;1.60;;
1747;SDS011;871;47.034;15.394;2023-12-14T06:21:54;36.17;;;1.65;;
1747;SDS011;871;47.034;15.394;2023-12-14T06:24:20;36.28;;;1.58;;
1747;SDS011;871;47.034;15.394;2023-12-14T06:26:47;36.45;;;1.55;;
1747;SDS011;871;47.034;15.394;2023-12-14T06:29:13;36.15;;;1.95;;
1747;SDS011;871;47.034;15.394;2023-12-14T06:31:39;36.15;;;2.00;;
1747;SDS011;871;47.034;15.394;2023-12-14T06:34:06;36.30;;;1.45;;
1747;SDS011;871;47.034;15.394;2023-12-14T06:36:32;36.65;;;1.88;;
1747;SDS011;871;47.034;15.394;2023-12-14T06:38:59;36.60;;;1.58;;
1747;SDS011;871;47.034;15.394;2023-12-14T06:41:26;36.50;;;1.38;;
1747;SDS011;871;47.034;15.394;2023-12-14T06:43:52;37.65;;;2.50;;
1747;SDS011;871;47.034;15.394;2023-12-14T06:46:19;36.53;;;1.70;;
1747;SDS011;871;47.034;15.394;2023-12-14T06:48:45;37.35;;;2.20;;
1747;SDS011;871;47.034;15.394;2023-12-14T06:51:11;37.25;;;2.00;;
1747;SDS011;871;47.034;15.394;2023-12-14T06:53:39;36.45;;;1.60;;
1747;SDS011;871;47.034;15.394;2023-12-14T06:56:06;36.33;;;1.50;;
1747;SDS011;871;47.034;15.394;2023-12-14T06:58:34;35.85;;;1.40;;
1747;SDS011;871;47.034;15.394;2023-12-14T07:01:01;36.05;;;1.67;;
1747;SDS011;871;47.034;15.394;2023-12-14T07:03:27;36.13;;;1.70;;
1747;SDS011;871;47.034;15.394;2023-12-14T07:05:53;36.45;;;2.05;;
1747;SDS011;871;47.034;15.394;2023-12-14T07:08:19;36.50;;;1.40;;
1747;SDS011;871;47.034;15.394;2023-12-14T07:10:45;36.67;;;1.70;;
1747;SDS011;871;47.034;15.394;2023-12-14T07:13:11;37.03;;;1.58;;
1747;SDS011;871;47.034;15.394;2023-12-14T07:15:37;36.80;;;1.60;;
1747;SDS011;871;47.034;15.394;2023-12-14T07:18:03;36.65;;;1.90;;
1747;SDS011;871;47.034;15.394;2023-12-14T07:20:29;37.55;;;2.53;;
1747;SDS011;871;47.034;15.394;2023-12-14T07:22:55;36.35;;;1.58;;
1747;SDS011;871;47.034;15.394;2023-12-14T07:25:21;36.22;;;1.60;;
1747;SDS011;871;47.034;15.394;2023-12-14T07:27:47;37.05;;;2.53;;
1747;SDS011;871;47.034;15.394;2023-12-14T07:30:13;37.03;;;1.88;;
1747;SDS011;871;47.034;15.394;2023-12-14T07:32:39;36.60;;;1.90;;
1747;SDS011;871;47.034;15.394;2023-12-14T07:35:06;36.90;;;2.20;;
1747;SDS011;871;47.034;15.394;2023-12-14T07:37:32;36.90;;;2.00;;
1747;SDS011;871;47.034;15.394;2023-12-14T07:39:58;36.53;;;2.10;;
1747;SDS011;871;47.034;15.394;2023-12-14T07:42:24;36.20;;;1.50;;
1747;SDS011;871;47.034;15.394;2023-12-14T07:44:50;36.92;;;2.25;;
1747;SDS011;871;47.034;15.394;2023-12-14T07:47:17;36.40;;;1.45;;
1747;SDS011;871;47.034;15.394;2023-12-14T07:49:43;36.80;;;1.65;;
1747;SDS011;871;47.034;15.394;2023-12-14T07:52:10;37.13;;;1.90;;
1747;SDS011;871;47.034;15.394;2023-12-14T07:54:38;37.20;;;1.90;;
1747;SDS011;871;47.034;15.394;2023-12-14T07:57:04;38.03;;;3.38;;
1747;SDS011;871;47.034;15.394;2023-12-14T07:59:30;37.20;;;1.63;;
1747;SDS011;871;47.034;15.394;2023-12-14T08:01:57;36.85;;;1.30;;
1747;SDS011;871;47.034;15.394;2023-12-14T08:04:23;37.53;;;2.20;;
1747;SDS011;871;47.034;15.394;2023-12-14T08:06:49;37.08;;;1.38;;
1747;SDS011;871;47.034;15.394;2023-12-14T08:09:16;37.28;;;1.55;;
1747;SDS011;871;47.034;15.394;2023-12-14T08:11:42;37.55;;;2.05;;
1747;SDS011;871;47.034;15.394;2023-12-14T08:14:08;37.35;;;1.80;;
1747;SDS011;871;47.034;15.394;2023-12-14T08:16:34;36.63;;;2.30;;
1747;SDS011;871;47.034;15.394;2023-12-14T08:19:01;35.92;;;1.55;;
1747;SDS011;871;47.034;15.394;2023-12-14T08:21:27;35.35;;;1.95;;
1747;SDS011;871;47.034;15.394;2023-12-14T08:23:53;35.40;;;1.83;;
1747;SDS011;871;47.034;15.394;2023-12-14T08:26:19;34.85;;;1.80;;
1747;SDS011;871;47.034;15.394;2023-12-14T08:28:45;34.70;;;1.60;;
1747;SDS011;871;47.034;15.394;2023-12-14T08:31:12;34.92;;;1.75;;
1747;SDS011;871;47.034;15.394;2023-12-14T08:33:40;34.55;;;1.60;;
1747;SDS011;871;47.034;15.394;2023-12-14T08:36:07;35.05;;;2.30;;
1747;SDS011;871;47.034;15.394;2023-12-14T08:38:33;35.22;;;2.10;;
1747;SDS011;871;47.034;15.394;2023-12-14T08:40:59;34.72;;;1.55;;
1747;SDS011;871;47.034;15.394;2023-12-14T08:43:25;34.45;;;1.80;;
1747;SDS011;871;47.034;15.394;2023-12-14T08:45:52;34.35;;;1.70;;
1747;SDS011;871;47.034;15.394;2023-12-14T08:48:18;34.95;;;1.48;;
1747;SDS011;871;47.034;15.394;2023-12-14T08:50:44;34.90;;;1.50;;
1747;SDS011;871;47.034;15.394;2023-12-14T08:53:10;35.30;;;1.42;;
1747;SDS011;871;47.034;15.394;2023-12-14T08:55:36;35.33;;;1.60;;
1747;SDS011;871;47.034;15.394;2023-12-14T08:58:02;35.25;;;1.70;;
1747;SDS011;871;47.034;15.394;2023-12-14T09:00:29;35.07;;;1.50;;
1747;SDS011;871;47.034;15.394;2023-12-14T09:02:55;36.27;;;1.80;;
1747;SDS011;871;47.034;15.394;2023-12-14T09:05:21;37.17;;;1.73;;
1747;SDS011;871;47.034;15.394;2023-12-14T09:07:47;37.50;;;1.47;;
1747;SDS011;871;47.034;15.394;2023-12-14T09:10:13;37.80;;;1.80;;
1747;SDS011;871;47.034;15.394;2023-12-14T09:12:39;38.13;;;1.67;;
1747;SDS011;871;47.034;15.394;2023-12-14T09:15:05;38.07;;;1.40;;
1747;SDS011;871;47.034;15.394;2023-12-14T09:17:31;37.77;;;1.50;;
1747;SDS011;871;47.034;15.394;2023-12-14T09:20:00;37.73;;;1.27;;
1747;SDS011;871;47.034;15.394;2023-12-14T09:22:29;40.03;;;1.80;;
1747;SDS011;871;47.034;15.394;2023-12-14T09:24:55;39.13;;;1.30;;
1747;SDS011;871;47.034;15.394;2023-12-14T09:27:21;39.47;;;1.70;;
1747;SDS011;871;47.034;15.394;2023-12-14T09:29:47;39.43;;;1.60;;
1747;SDS011;871;47.034;15.394;2023-12-14T09:32:13;38.90;;;1.80;;
1747;SDS011;871;47.034;15.394;2023-12-14T09:34:39;40.00;;;2.03;;
1747;SDS011;871;47.034;15.394;2023-12-14T09:37:05;38.80;;;1.40;;
1747;SDS011;871;47.034;15.394;2023-12-14T09:39:32;39.50;;;2.53;;
1747;SDS011;871;47.034;15.394;2023-12-14T09:42:05;38.93;;;1.60;;
1747;SDS011;871;47.034;15.394;2023-12-14T09:44:32;38.97;;;2.20;;
1747;SDS011;871;47.034;15.394;2023-12-14T09:46:59;40.07;;;2.93;;
1747;SDS011;871;47.034;15.394;2023-12-14T09:49:29;38.80;;;1.70;;
1747;SDS011;871;47.034;15.394;2023-12-14T09:51:58;39.13;;;1.50;;
1747;SDS011;871;47.034;15.394;2023-12-14T09:54:25;39.43;;;1.60;;
1747;SDS011;871;47.034;15.394;2023-12-14T09:56:52;40.17;;;2.13;;
1747;SDS011;871;47.034;15.394;2023-12-14T09:59:18;39.07;;;1.70;;
1747;SDS011;871;47.034;15.394;2023-12-14T10:01:45;39.57;;;2.20;;
1747;SDS011;871;47.034;15.394;2023-12-14T10:04:15;39.43;;;1.40;;
1747;SDS011;871;47.034;15.394;2023-12-14T10:06:42;40.30;;;2.13;;
1747;SDS011;871;47.034;15.394;2023-12-14T10:09:09;40.47;;;2.47;;
1747;SDS011;871;47.034;15.394;2023-12-14T10:11:38;39.97;;;1.70;;
1747;SDS011;871;47.034;15.394;2023-12-14T10:14:26;40.03;;;1.70;;
1747;SDS011;871;47.034;15.394;2023-12-14T10:16:51;39.80;;;1.70;;
1747;SDS011;871;47.034;15.394;2023-12-14T10:19:18;40.07;;;1.37;;
1747;SDS011;871;47.034;15.394;2023-12-14T10:21:48;40.07;;;2.00;;
1747;SDS011;871;47.034;15.394;2023-12-14T10:24:14;39.93;;;1.90;;
1747;SDS011;871;47.034;15.394;2023-12-14T10:26:40;40.23;;;1.70;;
1747;SDS011;871;47.034;15.394;2023-12-14T10:29:07;41.00;;;2.70;;
1747;SDS011;871;47.034;15.394;2023-12-14T10:31:34;39.77;;;1.60;;
1747;SDS011;871;47.034;15.394;2023-12-14T10:34:04;39.13;;;1.30;;
1747;SDS011;871;47.034;15.394;2023-12-14T10:36:30;39.07;;;1.43;;
1747;SDS011;871;47.034;15.394;2023-12-14T10:38:58;39.03;;;1.67;;
1747;SDS011;871;47.034;15.394;2023-12-14T10:41:24;38.93;;;1.40;;
1747;SDS011;871;47.034;15.394;2023-12-14T10:43:51;39.13;;;1.50;;
1747;SDS011;871;47.034;15.394;2023-12-14T10:46:19;39.90;;;2.33;;
1747;SDS011;871;47.034;15.394;2023-12-14T10:48:46;39.73;;;1.77;;
1747;SDS011;871;47.034;15.394;2023-12-14T10:51:13;39.53;;;1.50;;
1747;SDS011;871;47.034;15.394;2023-12-14T10:53:39;39.60;;;1.70;;
1747;SDS011;871;47.034;15.394;2023-12-14T10:56:09;40.03;;;2.07;;
1747;SDS011;871;47.034;15.394;2023-12-14T10:58:45;39.63;;;1.63;;
1747;SDS011;871;47.034;15.394;2023-12-14T11:01:15;39.53;;;1.70;;
1747;SDS011;871;47.034;15.394;2023-12-14T11:03:42;40.47;;;1.97;;
1747;SDS011;871;47.034;15.394;2023-12-14T11:06:30;39.87;;;1.73;;
1747;SDS011;871;47.034;15.394;2023-12-14T11:09:39;40.37;;;2.00;;
1747;SDS011;871;47.034;15.394;2023-12-14T11:14:19;40.23;;;2.07;;
1747;SDS011;871;47.034;15.394;2023-12-14T11:16:46;40.27;;;1.60;;
1747;SDS011;871;47.034;15.394;2023-12-14T11:24:14;42.80;;;2.60;;
1747;SDS011;871;47.034;15.394;2023-12-14T11:26:40;40.63;;;2.00;;
1747;SDS011;871;47.034;15.394;2023-12-14T11:29:06;40.27;;;1.53;;
1747;SDS011;871;47.034;15.394;2023-12-14T11:31:32;40.73;;;2.00;;
1747;SDS011;871;47.034;15.394;2023-12-14T11:34:00;40.23;;;1.40;;
1747;SDS011;871;47.034;15.394;2023-12-14T11:36:28;42.00;;;1.90;;
1747;SDS011;871;47.034;15.394;2023-12-14T11:38:54;42.20;;;2.50;;
1747;SDS011;871;47.034;15.394;2023-12-14T11:41:20;41.60;;;2.00;;
1747;SDS011;871;47.034;15.394;2023-12-14T11:43:47;41.97;;;1.70;;
1747;SDS011;871;47.034;15.394;2023-12-14T11:46:13;42.50;;;1.77;;
1747;SDS011;871;47.034;15.394;2023-12-14T11:48:40;42.40;;;2.13;;
1747;SDS011;871;47.034;15.394;2023-12-14T11:51:09;42.27;;;2.20;;
1747;SDS011;871;47.034;15.394;2023-12-14T11:53:36;41.27;;;1.50;;
1747;SDS011;871;47.034;15.394;2023-12-14T11:56:05;42.07;;;1.77;;
1747;SDS011;871;47.034;15.394;2023-12-14T11:58:32;41.97;;;1.40;;
1747;SDS011;871;47.034;15.394;2023-12-14T12:03:37;43.13;;;2.53;;
1747;SDS011;871;47.034;15.394;2023-12-14T12:06:04;41.93;;;1.80;;
1747;SDS011;871;47.034;15.394;2023-12-14T12:08:30;41.87;;;1.90;;
1747;SDS011;871;47.034;15.394;2023-12-14T12:10:56;41.50;;;1.70;;
1747;SDS011;871;47.034;15.394;2023-12-14T12:13:23;42.30;;;2.70;;
1747;SDS011;871;47.034;15.394;2023-12-14T12:15:49;41.67;;;1.87;;
1747;SDS011;871;47.034;15.394;2023-12-14T12:18:15;42.40;;;1.90;;
1747;SDS011;871;47.034;15.394;2023-12-14T12:20:42;41.27;;;1.80;;
1747;SDS011;871;47.034;15.394;2023-12-14T12:23:08;41.43;;;2.10;;
1747;SDS011;871;47.034;15.394;2023-12-14T12:25:34;44.10;;;2.00;;
1747;SDS011;871;47.034;15.394;2023-12-14T12:28:01;41.83;;;2.63;;
1747;SDS011;871;47.034;15.394;2023-12-14T12:30:28;41.20;;;1.47;;
1747;SDS011;871;47.034;15.394;2023-12-14T12:32:55;41.90;;;1.90;;
1747;SDS011;871;47.034;15.394;2023-12-14T12:35:21;42.07;;;1.70;;
1747;SDS011;871;47.034;15.394;2023-12-14T12:37:48;41.27;;;1.67;;
1747;SDS011;871;47.034;15.394;2023-12-14T12:40:18;41.23;;;1.40;;
1747;SDS011;871;47.034;15.394;2023-12-14T12:42:45;41.27;;;1.90;;
1747;SDS011;871;47.034;15.394;2023-12-14T12:45:13;41.33;;;2.00;;
1747;SDS011;871;47.034;15.394;2023-12-14T12:47:39;40.97;;;1.60;;
1747;SDS011;871;47.034;15.394;2023-12-14T12:50:05;41.20;;;1.50;;
1747;SDS011;871;47.034;15.394;2023-12-14T12:52:31;42.73;;;2.50;;
1747;SDS011;871;47.034;15.394;2023-12-14T12:54:57;41.83;;;1.83;;
1747;SDS011;871;47.034;15.394;2023-12-14T12:57:24;41.60;;;2.07;;
1747;SDS011;871;47.034;15.394;2023-12-14T12:59:50;41.97;;;1.87;;
1747;SDS011;871;47.034;15.394;2023-12-14T13:02:16;41.87;;;2.00;;
1747;SDS011;871;47.034;15.394;2023-12-14T13:04:43;42.23;;;1.97;;
1747;SDS011;871;47.034;15.394;2023-12-14T13:07:09;41.77;;;1.20;;
1747;SDS011;871;47.034;15.394;2023-12-14T13:09:37;42.17;;;2.43;;
1747;SDS011;871;47.034;15.394;2023-12-14T13:12:03;41.67;;;1.50;;
1747;SDS011;871;47.034;15.394;2023-12-14T13:14:29;41.67;;;1.53;;
1747;SDS011;871;47.034;15.394;2023-12-14T13:16:56;42.50;;;2.73;;
1747;SDS011;871;47.034;15.394;2023-12-14T13:19:25;41.30;;;1.63;;
1747;SDS011;871;47.034;15.394;2023-12-14T13:21:53;41.43;;;1.80;;
1747;SDS011;871;47.034;15.394;2023-12-14T13:24:21;41.30;;;1.90;;
1747;SDS011;871;47.034;15.394;2023-12-14T13:26:49;41.37;;;1.90;;
1747;SDS011;871;47.034;15.394;2023-12-14T13:29:15;41.23;;;2.00;;
1747;SDS011;871;47.034;15.394;2023-12-14T13:31:41;40.97;;;1.43;;
1747;SDS011;871;47.034;15.394;2023-12-14T13:34:07;41.27;;;1.60;;
1747;SDS011;871;47.034;15.394;2023-12-14T13:36:33;41.87;;;2.33;;
1747;SDS011;871;47.034;15.394;2023-12-14T13:38:59;41.10;;;1.37;;
1747;SDS011;871;47.034;15.394;2023-12-14T13:41:27;42.83;;;3.47;;
1747;SDS011;871;47.034;15.394;2023-12-14T13:43:53;41.80;;;2.40;;
1747;SDS011;871;47.034;15.394;2023-12-14T13:46:19;41.83;;;2.37;;
1747;SDS011;871;47.034;15.394;2023-12-14T13:48:45;41.60;;;2.27;;
1747;SDS011;871;47.034;15.394;2023-12-14T13:51:11;41.23;;;1.83;;
1747;SDS011;871;47.034;15.394;2023-12-14T13:53:37;41.67;;;1.93;;
1747;SDS011;871;47.034;15.394;2023-12-14T13:56:04;41.27;;;1.73;;
1747;SDS011;871;47.034;15.394;2023-12-14T13:58:30;41.07;;;1.43;;
1747;SDS011;871;47.034;15.394;2023-12-14T14:00:59;40.80;;;1.33;;
1747;SDS011;871;47.034;15.394;2023-12-14T14:03:25;40.80;;;1.50;;
1747;SDS011;871;47.034;15.394;2023-12-14T14:05:52;40.97;;;1.97;;
1747;SDS011;871;47.034;15.394;2023-12-14T14:08:18;40.30;;;1.33;;
1747;SDS011;871;47.034;15.394;2023-12-14T14:10:46;40.17;;;1.33;;
1747;SDS011;871;47.034;15.394;2023-12-14T14:13:12;40.23;;;1.30;;
1747;SDS011;871;47.034;15.394;2023-12-14T14:15:38;40.53;;;1.30;;
1747;SDS011;871;47.034;15.394;2023-12-14T14:18:04;39.97;;;1.30;;
1747;SDS011;871;47.034;15.394;2023-12-14T14:20:30;40.10;;;1.50;;
1747;SDS011;871;47.034;15.394;2023-12-14T14:22:56;40.40;;;1.60;;
1747;SDS011;871;47.034;15.394;2023-12-14T14:25:24;41.10;;;2.03;;
1747;SDS011;871;47.034;15.394;2023-12-14T14:27:50;40.37;;;1.50;;
1747;SDS011;871;47.034;15.394;2023-12-14T14:30:16;40.23;;;1.40;;
1747;SDS011;871;47.034;15.394;2023-12-14T14:32:43;40.53;;;1.50;;
1747;SDS011;871;47.034;15.394;2023-12-14T14:35:10;40.70;;;1.80;;
1747;SDS011;871;47.034;15.394;2023-12-14T14:37:36;40.60;;;1.67;;
1747;SDS011;871;47.034;15.394;2023-12-14T14:40:02;40.43;;;1.53;;
1747;SDS011;871;47.034;15.394;2023-12-14T14:42:29;41.07;;;2.03;;
1747;SDS011;871;47.034;15.394;2023-12-14T14:44:55;40.40;;;1.43;;
1747;SDS011;871;47.034;15.394;2023-12-14T14:47:21;41.20;;;1.93;;
1747;SDS011;871;47.034;15.394;2023-12-14T14:49:48;40.73;;;1.70;;
1747;SDS011;871;47.034;15.394;2023-12-14T14:52:14;42.53;;;2.60;;
1747;SDS011;871;47.034;15.394;2023-12-14T14:54:41;42.00;;;2.83;;
1747;SDS011;871;47.034;15.394;2023-12-14T14:57:07;40.43;;;1.47;;
1747;SDS011;871;47.034;15.394;2023-12-14T14:59:33;40.30;;;1.73;;
1747;SDS011;871;47.034;15.394;2023-12-14T15:01:59;40.43;;;1.30;;
1747;SDS011;871;47.034;15.394;2023-12-14T15:04:26;40.33;;;1.77;;
1747;SDS011;871;47.034;15.394;2023-12-14T15:06:52;40.40;;;1.60;;